sensor_id;sensor_type;location;lat;lon;timestamp;P1;durP1;ratioP1;P2;durP2;ratioP2
59907;SDS011;61804;54.926;73.496;2023-03-12T00:02:20;5.60;;;1.63;;
59907;SDS011;61804;54.926;73.496;2023-03-12T00:04:54;2.17;;;1.98;;
59907;SDS011;61804;54.926;73.496;2023-03-12T00:07:21;5.03;;;2.13;;
59907;SDS011;61804;54.926;73.496;2023-03-12T00:09:49;10.30;;;3.28;;
59907;SDS011;61804;54.926;73.496;2023-03-12T00:12:23;6.82;;;3.40;;
59907;SDS011;61804;54.926;73.496;2023-03-12T00:14:51;19.08;;;4.55;;
59907;SDS011;61804;54.926;73.496;2023-03-12T00:17:19;21.35;;;5.68;;
59907;SDS011;61804;54.926;73.496;2023-03-12T00:19:49;7.60;;;3.55;;
59907;SDS011;61804;54.926;73.496;2023-03-12T00:22:17;4.50;;;3.15;;
59907;SDS011;61804;54.926;73.496;2023-03-12T00:24:54;6.80;;;2.40;;
59907;SDS011;61804;54.926;73.496;2023-03-12T00:27:24;3.22;;;2.10;;
59907;SDS011;61804;54.926;73.496;2023-03-12T00:29:52;5.07;;;3.13;;
59907;SDS011;61804;54.926;73.496;2023-03-12T00:32:20;27.88;;;3.40;;
59907;SDS011;61804;54.926;73.496;2023-03-12T00:34:51;13.13;;;11.10;;
59907;SDS011;61804;54.926;73.496;2023-03-12T00:37:20;45.30;;;40.67;;
59907;SDS011;61804;54.926;73.496;2023-03-12T00:39:54;78.93;;;59.80;;
59907;SDS011;61804;54.926;73.496;2023-03-12T00:42:26;36.47;;;28.00;;
59907;SDS011;61804;54.926;73.496;2023-03-12T00:44:55;19.17;;;13.85;;
59907;SDS011;61804;54.926;73.496;2023-03-12T00:47:28;7.45;;;6.68;;
59907;SDS011;61804;54.926;73.496;2023-03-12T00:49:56;72.03;;;65.47;;
59907;SDS011;61804;54.926;73.496;2023-03-12T00:52:33;20.55;;;18.52;;
59907;SDS011;61804;54.926;73.496;2023-03-12T00:55:10;8.68;;;7.82;;
59907;SDS011;61804;54.926;73.496;2023-03-12T00:57:39;5.78;;;2.65;;
59907;SDS011;61804;54.926;73.496;2023-03-12T01:00:06;34.38;;;31.27;;
59907;SDS011;61804;54.926;73.496;2023-03-12T01:02:37;12.73;;;11.15;;
59907;SDS011;61804;54.926;73.496;2023-03-12T01:05:07;5.10;;;4.57;;
59907;SDS011;61804;54.926;73.496;2023-03-12T01:07:34;51.42;;;46.15;;
59907;SDS011;61804;54.926;73.496;2023-03-12T01:10:03;8.73;;;7.35;;
59907;SDS011;61804;54.926;73.496;2023-03-12T01:12:41;6.25;;;3.38;;
59907;SDS011;61804;54.926;73.496;2023-03-12T01:15:20;3.28;;;1.70;;
59907;SDS011;61804;54.926;73.496;2023-03-12T01:17:49;5.97;;;4.32;;
59907;SDS011;61804;54.926;73.496;2023-03-12T01:20:18;4.70;;;2.38;;
59907;SDS011;61804;54.926;73.496;2023-03-12T01:22:57;1.98;;;1.83;;
59907;SDS011;61804;54.926;73.496;2023-03-12T01:25:25;4.15;;;3.78;;
59907;SDS011;61804;54.926;73.496;2023-03-12T01:27:54;5.75;;;3.00;;
59907;SDS011;61804;54.926;73.496;2023-03-12T01:30:32;3.72;;;1.73;;
59907;SDS011;61804;54.926;73.496;2023-03-12T01:33:00;2.00;;;1.25;;
59907;SDS011;61804;54.926;73.496;2023-03-12T01:35:36;2.45;;;1.25;;
59907;SDS011;61804;54.926;73.496;2023-03-12T01:38:05;8.40;;;1.27;;
59907;SDS011;61804;54.926;73.496;2023-03-12T01:40:34;3.00;;;2.75;;
59907;SDS011;61804;54.926;73.496;2023-03-12T01:43:22;2.28;;;1.40;;
59907;SDS011;61804;54.926;73.496;2023-03-12T01:46:39;3.65;;;2.63;;
59907;SDS011;61804;54.926;73.496;2023-03-12T01:51:23;4.10;;;2.13;;
59907;SDS011;61804;54.926;73.496;2023-03-12T01:53:52;3.50;;;1.70;;
59907;SDS011;61804;54.926;73.496;2023-03-12T01:56:26;3.70;;;2.67;;
59907;SDS011;61804;54.926;73.496;2023-03-12T01:58:59;3.80;;;2.42;;
59907;SDS011;61804;54.926;73.496;2023-03-12T02:01:31;4.78;;;2.85;;
59907;SDS011;61804;54.926;73.496;2023-03-12T02:04:00;3.85;;;2.30;;
59907;SDS011;61804;54.926;73.496;2023-03-12T02:06:36;12.98;;;8.77;;
59907;SDS011;61804;54.926;73.496;2023-03-12T02:09:06;5.43;;;5.00;;
59907;SDS011;61804;54.926;73.496;2023-03-12T02:11:34;2.90;;;2.53;;
59907;SDS011;61804;54.926;73.496;2023-03-12T02:14:02;4.28;;;1.98;;
59907;SDS011;61804;54.926;73.496;2023-03-12T02:16:30;6.53;;;4.78;;
59907;SDS011;61804;54.926;73.496;2023-03-12T02:18:57;6.00;;;4.50;;
59907;SDS011;61804;54.926;73.496;2023-03-12T02:21:27;11.73;;;9.57;;
59907;SDS011;61804;54.926;73.496;2023-03-12T02:26:36;4.13;;;3.03;;
59907;SDS011;61804;54.926;73.496;2023-03-12T02:29:11;4.80;;;3.38;;
59907;SDS011;61804;54.926;73.496;2023-03-12T02:31:43;5.60;;;3.03;;
59907;SDS011;61804;54.926;73.496;2023-03-12T02:34:13;17.85;;;11.68;;
59907;SDS011;61804;54.926;73.496;2023-03-12T02:36:41;7.05;;;4.38;;
59907;SDS011;61804;54.926;73.496;2023-03-12T02:39:15;49.75;;;30.42;;
59907;SDS011;61804;54.926;73.496;2023-03-12T02:41:55;21.30;;;13.27;;
59907;SDS011;61804;54.926;73.496;2023-03-12T02:44:26;7.22;;;4.60;;
59907;SDS011;61804;54.926;73.496;2023-03-12T02:46:56;18.67;;;9.77;;
59907;SDS011;61804;54.926;73.496;2023-03-12T02:49:25;24.77;;;15.10;;
59907;SDS011;61804;54.926;73.496;2023-03-12T02:51:53;14.50;;;13.02;;
59907;SDS011;61804;54.926;73.496;2023-03-12T02:54:22;21.83;;;17.35;;
59907;SDS011;61804;54.926;73.496;2023-03-12T02:56:50;5.10;;;3.60;;
59907;SDS011;61804;54.926;73.496;2023-03-12T02:59:23;10.57;;;6.03;;
59907;SDS011;61804;54.926;73.496;2023-03-12T03:01:57;19.75;;;8.32;;
59907;SDS011;61804;54.926;73.496;2023-03-12T03:04:31;4.28;;;2.88;;
59907;SDS011;61804;54.926;73.496;2023-03-12T03:07:12;6.95;;;5.65;;
59907;SDS011;61804;54.926;73.496;2023-03-12T03:09:52;2.45;;;1.65;;
59907;SDS011;61804;54.926;73.496;2023-03-12T03:12:20;17.27;;;13.50;;
59907;SDS011;61804;54.926;73.496;2023-03-12T03:14:49;4.03;;;3.53;;
59907;SDS011;61804;54.926;73.496;2023-03-12T03:17:21;9.00;;;3.80;;
59907;SDS011;61804;54.926;73.496;2023-03-12T03:19:51;4.70;;;2.58;;
59907;SDS011;61804;54.926;73.496;2023-03-12T03:22:19;11.75;;;5.88;;
59907;SDS011;61804;54.926;73.496;2023-03-12T03:24:48;4.38;;;3.58;;
59907;SDS011;61804;54.926;73.496;2023-03-12T03:27:26;21.63;;;13.98;;
59907;SDS011;61804;54.926;73.496;2023-03-12T03:29:54;11.57;;;3.45;;
59907;SDS011;61804;54.926;73.496;2023-03-12T03:32:26;2.55;;;2.33;;
59907;SDS011;61804;54.926;73.496;2023-03-12T03:34:53;3.47;;;2.17;;
59907;SDS011;61804;54.926;73.496;2023-03-12T03:37:22;4.97;;;4.47;;
59907;SDS011;61804;54.926;73.496;2023-03-12T03:39:50;10.50;;;3.78;;
59907;SDS011;61804;54.926;73.496;2023-03-12T03:42:23;14.48;;;10.68;;
59907;SDS011;61804;54.926;73.496;2023-03-12T03:44:50;6.43;;;4.70;;
59907;SDS011;61804;54.926;73.496;2023-03-12T03:47:18;5.50;;;4.22;;
59907;SDS011;61804;54.926;73.496;2023-03-12T03:49:45;19.85;;;13.60;;
59907;SDS011;61804;54.926;73.496;2023-03-12T03:52:13;10.57;;;3.72;;
59907;SDS011;61804;54.926;73.496;2023-03-12T03:54:41;8.15;;;3.78;;
59907;SDS011;61804;54.926;73.496;2023-03-12T03:57:14;63.33;;;39.42;;
59907;SDS011;61804;54.926;73.496;2023-03-12T03:59:42;5.60;;;4.07;;
59907;SDS011;61804;54.926;73.496;2023-03-12T04:02:14;8.35;;;6.93;;
59907;SDS011;61804;54.926;73.496;2023-03-12T04:04:57;4.05;;;3.05;;
59907;SDS011;61804;54.926;73.496;2023-03-12T04:07:26;3.28;;;3.00;;
59907;SDS011;61804;54.926;73.496;2023-03-12T04:09:54;4.88;;;3.83;;
59907;SDS011;61804;54.926;73.496;2023-03-12T04:12:23;2.42;;;2.22;;
59907;SDS011;61804;54.926;73.496;2023-03-12T04:14:52;3.80;;;1.88;;
59907;SDS011;61804;54.926;73.496;2023-03-12T04:17:20;3.25;;;2.72;;
59907;SDS011;61804;54.926;73.496;2023-03-12T04:19:48;8.68;;;2.97;;
59907;SDS011;61804;54.926;73.496;2023-03-12T04:22:25;2.92;;;2.72;;
59907;SDS011;61804;54.926;73.496;2023-03-12T04:24:57;4.35;;;2.50;;
59907;SDS011;61804;54.926;73.496;2023-03-12T04:27:27;4.85;;;2.80;;
59907;SDS011;61804;54.926;73.496;2023-03-12T04:29:59;3.63;;;2.67;;
59907;SDS011;61804;54.926;73.496;2023-03-12T04:32:27;2.45;;;2.25;;
59907;SDS011;61804;54.926;73.496;2023-03-12T04:34:56;3.20;;;2.20;;
59907;SDS011;61804;54.926;73.496;2023-03-12T04:37:23;1.90;;;1.65;;
59907;SDS011;61804;54.926;73.496;2023-03-12T04:39:51;2.28;;;1.67;;
59907;SDS011;61804;54.926;73.496;2023-03-12T04:42:18;2.88;;;2.40;;
59907;SDS011;61804;54.926;73.496;2023-03-12T04:44:49;3.80;;;2.92;;
59907;SDS011;61804;54.926;73.496;2023-03-12T04:47:20;2.60;;;2.00;;
59907;SDS011;61804;54.926;73.496;2023-03-12T04:49:48;3.53;;;2.88;;
59907;SDS011;61804;54.926;73.496;2023-03-12T04:52:16;4.43;;;3.17;;
59907;SDS011;61804;54.926;73.496;2023-03-12T04:54:54;3.00;;;2.80;;
59907;SDS011;61804;54.926;73.496;2023-03-12T04:57:22;2.85;;;2.65;;
59907;SDS011;61804;54.926;73.496;2023-03-12T05:00:01;2.63;;;2.42;;
59907;SDS011;61804;54.926;73.496;2023-03-12T05:02:41;4.70;;;3.42;;
59907;SDS011;61804;54.926;73.496;2023-03-12T05:05:15;2.72;;;2.53;;
59907;SDS011;61804;54.926;73.496;2023-03-12T05:07:42;2.65;;;2.40;;
59907;SDS011;61804;54.926;73.496;2023-03-12T05:10:17;3.05;;;2.85;;
59907;SDS011;61804;54.926;73.496;2023-03-12T05:12:51;4.63;;;4.05;;
59907;SDS011;61804;54.926;73.496;2023-03-12T05:15:30;5.82;;;3.50;;
59907;SDS011;61804;54.926;73.496;2023-03-12T05:18:08;3.83;;;3.47;;
59907;SDS011;61804;54.926;73.496;2023-03-12T05:20:36;3.15;;;2.83;;
59907;SDS011;61804;54.926;73.496;2023-03-12T05:23:04;1.98;;;1.73;;
59907;SDS011;61804;54.926;73.496;2023-03-12T05:25:31;6.68;;;2.30;;
59907;SDS011;61804;54.926;73.496;2023-03-12T05:27:58;2.28;;;2.08;;
59907;SDS011;61804;54.926;73.496;2023-03-12T05:30:37;2.75;;;2.22;;
59907;SDS011;61804;54.926;73.496;2023-03-12T05:33:07;4.38;;;3.08;;
59907;SDS011;61804;54.926;73.496;2023-03-12T05:35:34;2.35;;;2.15;;
59907;SDS011;61804;54.926;73.496;2023-03-12T05:38:02;3.97;;;2.75;;
59907;SDS011;61804;54.926;73.496;2023-03-12T05:40:29;4.43;;;2.88;;
59907;SDS011;61804;54.926;73.496;2023-03-12T05:43:03;2.97;;;2.72;;
59907;SDS011;61804;54.926;73.496;2023-03-12T05:45:31;3.90;;;2.65;;
59907;SDS011;61804;54.926;73.496;2023-03-12T05:47:59;3.47;;;2.30;;
59907;SDS011;61804;54.926;73.496;2023-03-12T05:50:28;2.65;;;2.15;;
59907;SDS011;61804;54.926;73.496;2023-03-12T05:53:02;4.22;;;1.60;;
59907;SDS011;61804;54.926;73.496;2023-03-12T05:55:40;3.08;;;2.70;;
59907;SDS011;61804;54.926;73.496;2023-03-12T05:58:08;4.28;;;2.65;;
59907;SDS011;61804;54.926;73.496;2023-03-12T06:00:37;2.50;;;1.85;;
59907;SDS011;61804;54.926;73.496;2023-03-12T06:03:06;4.00;;;2.17;;
59907;SDS011;61804;54.926;73.496;2023-03-12T06:05:40;2.67;;;1.80;;
59907;SDS011;61804;54.926;73.496;2023-03-12T06:08:13;5.40;;;3.60;;
59907;SDS011;61804;54.926;73.496;2023-03-12T06:10:42;6.75;;;6.07;;
59907;SDS011;61804;54.926;73.496;2023-03-12T06:13:10;3.78;;;3.47;;
59907;SDS011;61804;54.926;73.496;2023-03-12T06:15:38;3.53;;;2.90;;
59907;SDS011;61804;54.926;73.496;2023-03-12T06:18:07;3.78;;;3.20;;
59907;SDS011;61804;54.926;73.496;2023-03-12T06:20:35;3.22;;;2.47;;
59907;SDS011;61804;54.926;73.496;2023-03-12T06:23:08;4.68;;;3.00;;
59907;SDS011;61804;54.926;73.496;2023-03-12T06:25:35;2.65;;;2.45;;
59907;SDS011;61804;54.926;73.496;2023-03-12T06:28:05;3.92;;;3.17;;
59907;SDS011;61804;54.926;73.496;2023-03-12T06:30:38;3.70;;;2.50;;
59907;SDS011;61804;54.926;73.496;2023-03-12T06:33:06;3.30;;;2.97;;
59907;SDS011;61804;54.926;73.496;2023-03-12T06:35:45;2.25;;;1.98;;
59907;SDS011;61804;54.926;73.496;2023-03-12T06:38:13;3.45;;;2.53;;
59907;SDS011;61804;54.926;73.496;2023-03-12T06:40:54;3.25;;;3.03;;
59907;SDS011;61804;54.926;73.496;2023-03-12T06:43:28;6.20;;;3.63;;
59907;SDS011;61804;54.926;73.496;2023-03-12T06:46:08;3.45;;;2.97;;
59907;SDS011;61804;54.926;73.496;2023-03-12T06:48:38;4.07;;;3.67;;
59907;SDS011;61804;54.926;73.496;2023-03-12T06:51:13;2.75;;;2.38;;
59907;SDS011;61804;54.926;73.496;2023-03-12T06:53:40;2.58;;;1.70;;
59907;SDS011;61804;54.926;73.496;2023-03-12T06:56:08;1.70;;;1.60;;
59907;SDS011;61804;54.926;73.496;2023-03-12T06:58:36;2.53;;;2.00;;
59907;SDS011;61804;54.926;73.496;2023-03-12T07:01:08;2.72;;;2.25;;
59907;SDS011;61804;54.926;73.496;2023-03-12T07:03:36;3.05;;;1.70;;
59907;SDS011;61804;54.926;73.496;2023-03-12T07:06:03;2.40;;;1.92;;
59907;SDS011;61804;54.926;73.496;2023-03-12T07:08:31;1.92;;;1.83;;
59907;SDS011;61804;54.926;73.496;2023-03-12T07:10:59;1.80;;;1.70;;
59907;SDS011;61804;54.926;73.496;2023-03-12T07:13:27;2.55;;;2.35;;
59907;SDS011;61804;54.926;73.496;2023-03-12T07:15:55;4.43;;;2.83;;
59907;SDS011;61804;54.926;73.496;2023-03-12T07:18:22;2.72;;;2.53;;
59907;SDS011;61804;54.926;73.496;2023-03-12T07:20:50;2.80;;;2.47;;
59907;SDS011;61804;54.926;73.496;2023-03-12T07:23:18;2.10;;;2.00;;
59907;SDS011;61804;54.926;73.496;2023-03-12T07:25:45;2.38;;;2.10;;
59907;SDS011;61804;54.926;73.496;2023-03-12T07:28:19;7.40;;;6.30;;
59907;SDS011;61804;54.926;73.496;2023-03-12T07:30:47;4.35;;;3.28;;
59907;SDS011;61804;54.926;73.496;2023-03-12T07:33:27;2.92;;;2.70;;
59907;SDS011;61804;54.926;73.496;2023-03-12T07:35:54;2.50;;;2.10;;
59907;SDS011;61804;54.926;73.496;2023-03-12T07:38:21;3.92;;;2.65;;
59907;SDS011;61804;54.926;73.496;2023-03-12T07:40:52;1.88;;;1.77;;
59907;SDS011;61804;54.926;73.496;2023-03-12T07:43:20;2.50;;;2.03;;
59907;SDS011;61804;54.926;73.496;2023-03-12T07:45:48;4.00;;;2.45;;
59907;SDS011;61804;54.926;73.496;2023-03-12T07:48:16;1.88;;;1.77;;
59907;SDS011;61804;54.926;73.496;2023-03-12T07:50:47;3.05;;;2.80;;
59907;SDS011;61804;54.926;73.496;2023-03-12T07:53:14;11.73;;;9.00;;
59907;SDS011;61804;54.926;73.496;2023-03-12T07:55:47;3.28;;;2.97;;
59907;SDS011;61804;54.926;73.496;2023-03-12T07:58:15;4.55;;;4.15;;
59907;SDS011;61804;54.926;73.496;2023-03-12T08:00:43;6.20;;;3.60;;
59907;SDS011;61804;54.926;73.496;2023-03-12T08:03:10;3.90;;;3.58;;
59907;SDS011;61804;54.926;73.496;2023-03-12T08:05:57;9.10;;;6.88;;
59907;SDS011;61804;54.926;73.496;2023-03-12T08:08:25;6.53;;;5.95;;
59907;SDS011;61804;54.926;73.496;2023-03-12T08:10:57;9.93;;;4.25;;
59907;SDS011;61804;54.926;73.496;2023-03-12T08:13:24;11.52;;;4.35;;
59907;SDS011;61804;54.926;73.496;2023-03-12T08:15:52;53.22;;;36.00;;
59907;SDS011;61804;54.926;73.496;2023-03-12T08:18:30;3.50;;;3.20;;
59907;SDS011;61804;54.926;73.496;2023-03-12T08:20:57;5.40;;;3.72;;
59907;SDS011;61804;54.926;73.496;2023-03-12T08:23:27;4.05;;;3.58;;
59907;SDS011;61804;54.926;73.496;2023-03-12T08:26:00;4.20;;;2.60;;
59907;SDS011;61804;54.926;73.496;2023-03-12T08:28:28;4.28;;;3.03;;
59907;SDS011;61804;54.926;73.496;2023-03-12T08:30:58;6.97;;;3.50;;
59907;SDS011;61804;54.926;73.496;2023-03-12T08:33:26;6.53;;;2.03;;
59907;SDS011;61804;54.926;73.496;2023-03-12T08:35:54;4.97;;;3.10;;
59907;SDS011;61804;54.926;73.496;2023-03-12T08:38:22;4.90;;;2.30;;
59907;SDS011;61804;54.926;73.496;2023-03-12T08:40:57;6.22;;;2.10;;
59907;SDS011;61804;54.926;73.496;2023-03-12T08:43:25;2.95;;;2.35;;
59907;SDS011;61804;54.926;73.496;2023-03-12T08:45:56;4.53;;;2.63;;
59907;SDS011;61804;54.926;73.496;2023-03-12T08:48:35;8.73;;;4.72;;
59907;SDS011;61804;54.926;73.496;2023-03-12T08:51:03;10.02;;;3.42;;
59907;SDS011;61804;54.926;73.496;2023-03-12T08:53:32;27.00;;;4.32;;
59907;SDS011;61804;54.926;73.496;2023-03-12T08:56:01;20.17;;;4.18;;
59907;SDS011;61804;54.926;73.496;2023-03-12T08:58:29;13.98;;;4.93;;
59907;SDS011;61804;54.926;73.496;2023-03-12T09:00:57;7.95;;;5.07;;
59907;SDS011;61804;54.926;73.496;2023-03-12T09:03:26;13.48;;;4.40;;
59907;SDS011;61804;54.926;73.496;2023-03-12T09:06:07;18.70;;;5.60;;
59907;SDS011;61804;54.926;73.496;2023-03-12T09:08:45;24.00;;;5.38;;
59907;SDS011;61804;54.926;73.496;2023-03-12T09:11:14;14.13;;;5.43;;
59907;SDS011;61804;54.926;73.496;2023-03-12T09:13:42;20.30;;;6.05;;
59907;SDS011;61804;54.926;73.496;2023-03-12T09:16:20;16.38;;;4.78;;
59907;SDS011;61804;54.926;73.496;2023-03-12T09:18:57;7.70;;;3.63;;
59907;SDS011;61804;54.926;73.496;2023-03-12T09:21:25;13.50;;;4.30;;
59907;SDS011;61804;54.926;73.496;2023-03-12T09:23:57;6.32;;;4.00;;
59907;SDS011;61804;54.926;73.496;2023-03-12T09:26:25;10.88;;;5.22;;
59907;SDS011;61804;54.926;73.496;2023-03-12T09:28:53;11.80;;;4.47;;
59907;SDS011;61804;54.926;73.496;2023-03-12T09:31:24;7.40;;;4.93;;
59907;SDS011;61804;54.926;73.496;2023-03-12T09:33:52;7.57;;;2.92;;
59907;SDS011;61804;54.926;73.496;2023-03-12T09:36:19;4.10;;;2.63;;
59907;SDS011;61804;54.926;73.496;2023-03-12T09:38:46;11.55;;;2.55;;
59907;SDS011;61804;54.926;73.496;2023-03-12T09:41:18;3.90;;;2.03;;
59907;SDS011;61804;54.926;73.496;2023-03-12T09:44:09;5.45;;;2.33;;
59907;SDS011;61804;54.926;73.496;2023-03-12T09:46:52;2.60;;;1.33;;
59907;SDS011;61804;54.926;73.496;2023-03-12T09:49:33;3.75;;;2.50;;
59907;SDS011;61804;54.926;73.496;2023-03-12T09:52:12;5.50;;;3.85;;
59907;SDS011;61804;54.926;73.496;2023-03-12T09:54:54;4.20;;;1.85;;
59907;SDS011;61804;54.926;73.496;2023-03-12T09:57:24;2.03;;;1.70;;
59907;SDS011;61804;54.926;73.496;2023-03-12T09:59:58;4.97;;;2.22;;
59907;SDS011;61804;54.926;73.496;2023-03-12T10:13:31;4.32;;;2.85;;
59907;SDS011;61804;54.926;73.496;2023-03-12T10:16:19;4.88;;;1.90;;
59907;SDS011;61804;54.926;73.496;2023-03-12T10:19:33;3.72;;;2.22;;
59907;SDS011;61804;54.926;73.496;2023-03-12T10:27:15;6.32;;;2.30;;
59907;SDS011;61804;54.926;73.496;2023-03-12T10:29:44;2.88;;;2.50;;
59907;SDS011;61804;54.926;73.496;2023-03-12T10:35:11;3.13;;;2.13;;
59907;SDS011;61804;54.926;73.496;2023-03-12T10:37:45;1.77;;;1.35;;
59907;SDS011;61804;54.926;73.496;2023-03-12T10:40:19;5.15;;;3.75;;
59907;SDS011;61804;54.926;73.496;2023-03-12T10:42:51;7.40;;;5.30;;
59907;SDS011;61804;54.926;73.496;2023-03-12T10:45:24;4.00;;;2.90;;
59907;SDS011;61804;54.926;73.496;2023-03-12T10:47:54;7.85;;;3.15;;
59907;SDS011;61804;54.926;73.496;2023-03-12T10:50:24;5.95;;;3.05;;
59907;SDS011;61804;54.926;73.496;2023-03-12T10:53:22;3.97;;;3.33;;
59907;SDS011;61804;54.926;73.496;2023-03-12T10:55:57;6.47;;;4.20;;
59907;SDS011;61804;54.926;73.496;2023-03-12T10:58:42;5.55;;;3.95;;
59907;SDS011;61804;54.926;73.496;2023-03-12T11:01:27;13.23;;;5.07;;
59907;SDS011;61804;54.926;73.496;2023-03-12T11:04:14;7.30;;;5.50;;
59907;SDS011;61804;54.926;73.496;2023-03-12T11:10:03;3.50;;;2.90;;
59907;SDS011;61804;54.926;73.496;2023-03-12T11:12:35;15.80;;;3.28;;
59907;SDS011;61804;54.926;73.496;2023-03-12T11:15:21;3.70;;;3.40;;
59907;SDS011;61804;54.926;73.496;2023-03-12T11:20:48;2.30;;;1.98;;
59907;SDS011;61804;54.926;73.496;2023-03-12T11:23:22;2.97;;;2.60;;
59907;SDS011;61804;54.926;73.496;2023-03-12T11:26:04;3.15;;;2.75;;
59907;SDS011;61804;54.926;73.496;2023-03-12T11:28:39;5.00;;;3.67;;
59907;SDS011;61804;54.926;73.496;2023-03-12T11:31:10;2.63;;;2.30;;
59907;SDS011;61804;54.926;73.496;2023-03-12T11:33:42;13.07;;;6.13;;
59907;SDS011;61804;54.926;73.496;2023-03-12T11:36:25;11.80;;;8.85;;
59907;SDS011;61804;54.926;73.496;2023-03-12T11:39:02;25.20;;;17.15;;
59907;SDS011;61804;54.926;73.496;2023-03-12T11:45:21;5.65;;;3.17;;
59907;SDS011;61804;54.926;73.496;2023-03-12T12:19:05;5.22;;;3.72;;
59907;SDS011;61804;54.926;73.496;2023-03-12T12:27:34;4.80;;;3.75;;
59907;SDS011;61804;54.926;73.496;2023-03-12T12:35:25;7.32;;;6.45;;
59907;SDS011;61804;54.926;73.496;2023-03-12T12:38:01;8.43;;;5.35;;
59907;SDS011;61804;54.926;73.496;2023-03-12T12:40:34;6.47;;;3.88;;
59907;SDS011;61804;54.926;73.496;2023-03-12T12:43:27;2.55;;;2.35;;
59907;SDS011;61804;54.926;73.496;2023-03-12T12:46:11;3.08;;;2.22;;
59907;SDS011;61804;54.926;73.496;2023-03-12T12:51:48;5.63;;;4.13;;
59907;SDS011;61804;54.926;73.496;2023-03-12T12:54:20;7.78;;;5.45;;
59907;SDS011;61804;54.926;73.496;2023-03-12T12:57:04;8.30;;;7.50;;
59907;SDS011;61804;54.926;73.496;2023-03-12T12:59:52;12.52;;;8.77;;
59907;SDS011;61804;54.926;73.496;2023-03-12T13:02:24;11.43;;;9.45;;
59907;SDS011;61804;54.926;73.496;2023-03-12T13:05:16;19.83;;;15.57;;
59907;SDS011;61804;54.926;73.496;2023-03-12T13:07:56;54.67;;;34.28;;
59907;SDS011;61804;54.926;73.496;2023-03-12T13:13:09;90.53;;;47.08;;
59907;SDS011;61804;54.926;73.496;2023-03-12T13:15:39;102.38;;;52.55;;
59907;SDS011;61804;54.926;73.496;2023-03-12T13:30:59;54.42;;;32.30;;
59907;SDS011;61804;54.926;73.496;2023-03-12T13:33:41;68.93;;;41.72;;
59907;SDS011;61804;54.926;73.496;2023-03-12T13:36:22;83.35;;;47.97;;
59907;SDS011;61804;54.926;73.496;2023-03-12T13:44:28;85.00;;;55.47;;
59907;SDS011;61804;54.926;73.496;2023-03-12T13:49:32;72.22;;;54.10;;
59907;SDS011;61804;54.926;73.496;2023-03-12T13:52:24;55.78;;;36.42;;
59907;SDS011;61804;54.926;73.496;2023-03-12T13:55:05;52.60;;;36.88;;
59907;SDS011;61804;54.926;73.496;2023-03-12T13:57:53;49.92;;;36.47;;
59907;SDS011;61804;54.926;73.496;2023-03-12T14:00:42;52.42;;;38.63;;
59907;SDS011;61804;54.926;73.496;2023-03-12T14:03:17;52.95;;;39.20;;
59907;SDS011;61804;54.926;73.496;2023-03-12T14:05:58;62.25;;;42.95;;
59907;SDS011;61804;54.926;73.496;2023-03-12T14:19:01;65.63;;;35.28;;
59907;SDS011;61804;54.926;73.496;2023-03-12T14:21:34;32.72;;;23.33;;
59907;SDS011;61804;54.926;73.496;2023-03-12T14:24:01;30.40;;;22.42;;
59907;SDS011;61804;54.926;73.496;2023-03-12T14:26:35;26.33;;;19.73;;
59907;SDS011;61804;54.926;73.496;2023-03-12T14:29:09;24.77;;;20.73;;
59907;SDS011;61804;54.926;73.496;2023-03-12T14:31:38;50.53;;;37.05;;
59907;SDS011;61804;54.926;73.496;2023-03-12T14:36:38;89.82;;;53.33;;
59907;SDS011;61804;54.926;73.496;2023-03-12T14:41:58;46.40;;;35.50;;
59907;SDS011;61804;54.926;73.496;2023-03-12T14:44:29;46.85;;;34.10;;
59907;SDS011;61804;54.926;73.496;2023-03-12T14:46:57;41.75;;;28.30;;
59907;SDS011;61804;54.926;73.496;2023-03-12T14:49:26;61.47;;;38.20;;
59907;SDS011;61804;54.926;73.496;2023-03-12T14:51:54;70.40;;;39.10;;
59907;SDS011;61804;54.926;73.496;2023-03-12T14:54:22;65.10;;;45.85;;
59907;SDS011;61804;54.926;73.496;2023-03-12T14:56:50;88.85;;;53.42;;
59907;SDS011;61804;54.926;73.496;2023-03-12T14:59:27;99.25;;;69.45;;
59907;SDS011;61804;54.926;73.496;2023-03-12T15:01:59;79.28;;;53.67;;
59907;SDS011;61804;54.926;73.496;2023-03-12T15:04:27;42.75;;;24.38;;
59907;SDS011;61804;54.926;73.496;2023-03-12T15:06:56;34.33;;;20.98;;
59907;SDS011;61804;54.926;73.496;2023-03-12T15:09:35;25.33;;;17.67;;
59907;SDS011;61804;54.926;73.496;2023-03-12T15:12:06;24.25;;;16.88;;
59907;SDS011;61804;54.926;73.496;2023-03-12T15:14:44;20.73;;;15.85;;
59907;SDS011;61804;54.926;73.496;2023-03-12T15:17:15;23.63;;;16.40;;
59907;SDS011;61804;54.926;73.496;2023-03-12T15:19:43;26.08;;;16.80;;
59907;SDS011;61804;54.926;73.496;2023-03-12T15:22:23;21.20;;;16.52;;
59907;SDS011;61804;54.926;73.496;2023-03-12T15:24:51;33.33;;;21.73;;
59907;SDS011;61804;54.926;73.496;2023-03-12T15:30:22;68.18;;;48.50;;
59907;SDS011;61804;54.926;73.496;2023-03-12T15:33:08;44.50;;;30.15;;
59907;SDS011;61804;54.926;73.496;2023-03-12T15:38:25;48.95;;;32.72;;
59907;SDS011;61804;54.926;73.496;2023-03-12T15:40:53;46.45;;;30.15;;
59907;SDS011;61804;54.926;73.496;2023-03-12T15:43:23;31.92;;;23.50;;
59907;SDS011;61804;54.926;73.496;2023-03-12T15:46:01;39.78;;;27.33;;
59907;SDS011;61804;54.926;73.496;2023-03-12T15:48:38;39.10;;;29.43;;
59907;SDS011;61804;54.926;73.496;2023-03-12T15:51:13;34.03;;;26.40;;
59907;SDS011;61804;54.926;73.496;2023-03-12T15:53:42;42.38;;;26.50;;
59907;SDS011;61804;54.926;73.496;2023-03-12T15:58:44;44.80;;;33.33;;
59907;SDS011;61804;54.926;73.496;2023-03-12T16:01:17;43.95;;;32.50;;
59907;SDS011;61804;54.926;73.496;2023-03-12T16:03:54;62.33;;;41.88;;
59907;SDS011;61804;54.926;73.496;2023-03-12T16:06:27;82.68;;;56.45;;
59907;SDS011;61804;54.926;73.496;2023-03-12T16:08:58;119.45;;;77.38;;
59907;SDS011;61804;54.926;73.496;2023-03-12T16:11:27;99.50;;;67.28;;
59907;SDS011;61804;54.926;73.496;2023-03-12T16:14:01;76.50;;;48.65;;
59907;SDS011;61804;54.926;73.496;2023-03-12T16:16:29;61.15;;;47.13;;
59907;SDS011;61804;54.926;73.496;2023-03-12T16:19:18;88.43;;;57.28;;
59907;SDS011;61804;54.926;73.496;2023-03-12T16:21:46;110.22;;;71.20;;
59907;SDS011;61804;54.926;73.496;2023-03-12T16:24:14;169.90;;;108.20;;
59907;SDS011;61804;54.926;73.496;2023-03-12T16:26:49;169.65;;;104.10;;
59907;SDS011;61804;54.926;73.496;2023-03-12T16:29:31;117.57;;;80.45;;
59907;SDS011;61804;54.926;73.496;2023-03-12T16:31:59;113.05;;;82.57;;
59907;SDS011;61804;54.926;73.496;2023-03-12T16:34:27;129.85;;;89.53;;
59907;SDS011;61804;54.926;73.496;2023-03-12T16:36:54;154.57;;;100.63;;
59907;SDS011;61804;54.926;73.496;2023-03-12T16:39:23;142.73;;;90.20;;
59907;SDS011;61804;54.926;73.496;2023-03-12T16:41:51;108.15;;;73.90;;
59907;SDS011;61804;54.926;73.496;2023-03-12T16:44:19;93.30;;;61.92;;
59907;SDS011;61804;54.926;73.496;2023-03-12T16:46:47;79.95;;;55.53;;
59907;SDS011;61804;54.926;73.496;2023-03-12T16:49:17;91.00;;;59.22;;
59907;SDS011;61804;54.926;73.496;2023-03-12T16:51:46;73.45;;;54.15;;
59907;SDS011;61804;54.926;73.496;2023-03-12T16:54:15;85.47;;;61.92;;
59907;SDS011;61804;54.926;73.496;2023-03-12T16:56:44;71.80;;;46.70;;
59907;SDS011;61804;54.926;73.496;2023-03-12T16:59:25;65.95;;;46.22;;
59907;SDS011;61804;54.926;73.496;2023-03-12T17:01:53;67.50;;;46.42;;
59907;SDS011;61804;54.926;73.496;2023-03-12T17:04:20;67.88;;;45.33;;